sensor_id;sensor_type;location;lat;lon;timestamp;pressure;altitude;pressure_sealevel;temperature;humidity
15193;BME280;7697;51.630;7.484;2023-11-21T00:02:41;-17385.16;;;9.29;100.00
15193;BME280;7697;51.630;7.484;2023-11-21T00:07:47;-17386.47;;;9.33;100.00
15193;BME280;7697;51.630;7.484;2023-11-21T00:12:50;-17386.81;;;9.34;100.00
15193;BME280;7697;51.630;7.484;2023-11-21T00:17:52;-17385.81;;;9.31;100.00
15193;BME280;7697;51.630;7.484;2023-11-21T00:22:56;-17386.16;;;9.32;100.00
15193;BME280;7697;51.630;7.484;2023-11-21T00:28:00;-17384.13;;;9.26;100.00
15193;BME280;7697;51.630;7.484;2023-11-21T00:33:02;-17383.13;;;9.23;100.00
15193;BME280;7697;51.630;7.484;2023-11-21T00:38:12;-17384.63;;;9.27;100.00
15193;BME280;7697;51.630;7.484;2023-11-21T00:43:14;-17384.63;;;9.27;100.00
15193;BME280;7697;51.630;7.484;2023-11-21T00:48:17;-17387.16;;;9.35;100.00
15193;BME280;7697;51.630;7.484;2023-11-21T00:53:21;-17385.47;;;9.30;100.00
15193;BME280;7697;51.630;7.484;2023-11-21T00:58:23;-17386.47;;;9.33;100.00
15193;BME280;7697;51.630;7.484;2023-11-21T01:03:31;-17387.50;;;9.36;100.00
15193;BME280;7697;51.630;7.484;2023-11-21T01:08:35;-17386.66;;;9.33;100.00
15193;BME280;7697;51.630;7.484;2023-11-21T01:13:39;-17388.66;;;9.39;100.00
15193;BME280;7697;51.630;7.484;2023-11-21T01:18:42;-17388.50;;;9.39;100.00
15193;BME280;7697;51.630;7.484;2023-11-21T01:23:47;-17389.34;;;9.41;100.00
15193;BME280;7697;51.630;7.484;2023-11-21T01:28:50;-17387.50;;;9.36;100.00
15193;BME280;7697;51.630;7.484;2023-11-21T01:33:54;-17388.81;;;9.40;100.00
15193;BME280;7697;51.630;7.484;2023-11-21T01:38:57;-17387.16;;;9.35;100.00
15193;BME280;7697;51.630;7.484;2023-11-21T01:44:01;-17387.16;;;9.35;100.00
15193;BME280;7697;51.630;7.484;2023-11-21T01:49:06;-17385.16;;;9.29;100.00
15193;BME280;7697;51.630;7.484;2023-11-21T01:54:14;-17386.31;;;9.32;100.00
15193;BME280;7697;51.630;7.484;2023-11-21T01:59:20;-17385.16;;;9.29;100.00
15193;BME280;7697;51.630;7.484;2023-11-21T02:04:27;-17386.47;;;9.33;100.00
15193;BME280;7697;51.630;7.484;2023-11-21T02:09:36;-17385.97;;;9.31;100.00
15193;BME280;7697;51.630;7.484;2023-11-21T02:14:42;-17384.81;;;9.28;100.00
15193;BME280;7697;51.630;7.484;2023-11-21T02:19:45;-17386.16;;;9.32;100.00
15193;BME280;7697;51.630;7.484;2023-11-21T02:24:51;-17384.63;;;9.27;100.00
15193;BME280;7697;51.630;7.484;2023-11-21T02:29:53;-17385.97;;;9.31;100.00
15193;BME280;7697;51.630;7.484;2023-11-21T02:34:56;-17384.81;;;9.28;100.00
15193;BME280;7697;51.630;7.484;2023-11-21T02:40:04;-17385.81;;;9.31;100.00
15193;BME280;7697;51.630;7.484;2023-11-21T02:45:08;-17385.97;;;9.31;100.00
15193;BME280;7697;51.630;7.484;2023-11-21T02:50:13;-17386.47;;;9.33;100.00
15193;BME280;7697;51.630;7.484;2023-11-21T02:55:17;-17387.66;;;9.36;100.00
15193;BME280;7697;51.630;7.484;2023-11-21T03:00:25;-17386.66;;;9.33;100.00
15193;BME280;7697;51.630;7.484;2023-11-21T03:05:27;-17386.47;;;9.33;100.00
15193;BME280;7697;51.630;7.484;2023-11-21T03:10:32;-17387.16;;;9.35;100.00
15193;BME280;7697;51.630;7.484;2023-11-21T03:15:35;-17385.31;;;9.29;100.00
15193;BME280;7697;51.630;7.484;2023-11-21T03:20:37;-17385.81;;;9.31;100.00
15193;BME280;7697;51.630;7.484;2023-11-21T03:25:43;-17385.47;;;9.30;100.00
15193;BME280;7697;51.630;7.484;2023-11-21T03:30:50;-17386.16;;;9.32;100.00
15193;BME280;7697;51.630;7.484;2023-11-21T03:35:53;-17385.31;;;9.29;100.00
15193;BME280;7697;51.630;7.484;2023-11-21T03:40:56;-17383.81;;;9.25;100.00
15193;BME280;7697;51.630;7.484;2023-11-21T03:46:05;-17385.16;;;9.29;100.00
15193;BME280;7697;51.630;7.484;2023-11-21T03:51:07;-17382.47;;;9.21;100.00
15193;BME280;7697;51.630;7.484;2023-11-21T03:56:12;-17383.28;;;9.23;100.00
15193;BME280;7697;51.630;7.484;2023-11-21T04:01:22;-17382.13;;;9.20;100.00
15193;BME280;7697;51.630;7.484;2023-11-21T04:06:28;-17381.28;;;9.17;100.00
15193;BME280;7697;51.630;7.484;2023-11-21T04:11:35;-17380.09;;;9.14;100.00
15193;BME280;7697;51.630;7.484;2023-11-21T04:16:41;-17377.94;;;9.07;100.00
15193;BME280;7697;51.630;7.484;2023-11-21T04:21:44;-17376.91;;;9.04;100.00
15193;BME280;7697;51.630;7.484;2023-11-21T04:26:48;-17377.75;;;9.07;100.00
15193;BME280;7697;51.630;7.484;2023-11-21T04:31:50;-17379.59;;;9.12;100.00
15193;BME280;7697;51.630;7.484;2023-11-21T04:36:55;-17378.94;;;9.10;100.00
15193;BME280;7697;51.630;7.484;2023-11-21T04:41:58;-17377.75;;;9.07;100.00
15193;BME280;7697;51.630;7.484;2023-11-21T04:47:05;-17379.94;;;9.13;100.00
15193;BME280;7697;51.630;7.484;2023-11-21T04:52:14;-17379.44;;;9.12;100.00
15193;BME280;7697;51.630;7.484;2023-11-21T04:57:19;-17378.78;;;9.10;100.00
15193;BME280;7697;51.630;7.484;2023-11-21T05:02:22;-17377.25;;;9.05;100.00
15193;BME280;7697;51.630;7.484;2023-11-21T05:07:24;-17374.06;;;8.95;100.00
15193;BME280;7697;51.630;7.484;2023-11-21T05:12:35;-17372.72;;;8.91;100.00
15193;BME280;7697;51.630;7.484;2023-11-21T05:17:40;-17369.38;;;8.81;100.00
15193;BME280;7697;51.630;7.484;2023-11-21T05:22:44;-17367.53;;;8.76;100.00
15193;BME280;7697;51.630;7.484;2023-11-21T05:27:48;-17366.69;;;8.73;100.00
15193;BME280;7697;51.630;7.484;2023-11-21T05:32:52;-17364.69;;;8.67;100.00
15193;BME280;7697;51.630;7.484;2023-11-21T05:37:54;-17365.34;;;8.69;100.00
15193;BME280;7697;51.630;7.484;2023-11-21T05:43:00;-17364.19;;;8.65;100.00
15193;BME280;7697;51.630;7.484;2023-11-21T05:48:03;-17363.00;;;8.62;100.00
15193;BME280;7697;51.630;7.484;2023-11-21T05:53:09;-17362.00;;;8.59;100.00
15193;BME280;7697;51.630;7.484;2023-11-21T05:58:14;-17361.16;;;8.56;100.00
15193;BME280;7697;51.630;7.484;2023-11-21T06:03:19;-17359.66;;;8.52;100.00
15193;BME280;7697;51.630;7.484;2023-11-21T06:08:21;-17358.97;;;8.50;100.00
15193;BME280;7697;51.630;7.484;2023-11-21T06:13:27;-17358.81;;;8.49;100.00
15193;BME280;7697;51.630;7.484;2023-11-21T06:18:30;-17356.78;;;8.43;100.00
15193;BME280;7697;51.630;7.484;2023-11-21T06:23:33;-17357.13;;;8.44;100.00
15193;BME280;7697;51.630;7.484;2023-11-21T06:28:40;-17356.63;;;8.43;100.00
15193;BME280;7697;51.630;7.484;2023-11-21T06:33:45;-17357.31;;;8.45;100.00
15193;BME280;7697;51.630;7.484;2023-11-21T06:38:47;-17357.47;;;8.45;100.00
15193;BME280;7697;51.630;7.484;2023-11-21T06:43:55;-17357.63;;;8.46;100.00
15193;BME280;7697;51.630;7.484;2023-11-21T06:49:02;-17358.31;;;8.48;100.00
15193;BME280;7697;51.630;7.484;2023-11-21T06:54:05;-17359.66;;;8.52;100.00
15193;BME280;7697;51.630;7.484;2023-11-21T06:59:08;-17359.47;;;8.51;100.00
15193;BME280;7697;51.630;7.484;2023-11-21T07:04:11;-17361.00;;;8.56;100.00
15193;BME280;7697;51.630;7.484;2023-11-21T07:09:12;-17362.00;;;8.59;100.00
15193;BME280;7697;51.630;7.484;2023-11-21T07:14:17;-17362.84;;;8.61;100.00
15193;BME280;7697;51.630;7.484;2023-11-21T07:19:20;-17363.00;;;8.62;100.00
15193;BME280;7697;51.630;7.484;2023-11-21T07:24:22;-17364.69;;;8.67;100.00
15193;BME280;7697;51.630;7.484;2023-11-21T07:29:25;-17364.69;;;8.67;100.00
15193;BME280;7697;51.630;7.484;2023-11-21T07:34:27;-17364.50;;;8.67;100.00
15193;BME280;7697;51.630;7.484;2023-11-21T07:39:29;-17366.84;;;8.74;100.00
15193;BME280;7697;51.630;7.484;2023-11-21T07:44:32;-17367.03;;;8.74;100.00
15193;BME280;7697;51.630;7.484;2023-11-21T07:49:34;-17368.88;;;8.80;100.00
15193;BME280;7697;51.630;7.484;2023-11-21T07:54:35;-17370.56;;;8.85;100.00
15193;BME280;7697;51.630;7.484;2023-11-21T07:59:39;-17370.38;;;8.84;100.00
15193;BME280;7697;51.630;7.484;2023-11-21T08:04:41;-17370.56;;;8.85;100.00
15193;BME280;7697;51.630;7.484;2023-11-21T08:09:43;-17371.56;;;8.88;100.00
15193;BME280;7697;51.630;7.484;2023-11-21T08:14:46;-17374.91;;;8.98;100.00
15193;BME280;7697;51.630;7.484;2023-11-21T08:19:48;-17377.59;;;9.06;100.00
15193;BME280;7697;51.630;7.484;2023-11-21T08:24:51;-17377.94;;;9.07;100.00
15193;BME280;7697;51.630;7.484;2023-11-21T08:29:54;-17380.94;;;9.16;100.00
15193;BME280;7697;51.630;7.484;2023-11-21T08:34:57;-17381.78;;;9.19;100.00
15193;BME280;7697;51.630;7.484;2023-11-21T08:39:59;-17382.78;;;9.22;100.00
15193;BME280;7697;51.630;7.484;2023-11-21T08:45:05;-17383.47;;;9.24;100.00
15193;BME280;7697;51.630;7.484;2023-11-21T08:50:09;-17382.78;;;9.22;100.00
15193;BME280;7697;51.630;7.484;2023-11-21T08:55:12;-17385.47;;;9.30;100.00
15193;BME280;7697;51.630;7.484;2023-11-21T09:00:16;-17386.66;;;9.33;100.00
15193;BME280;7697;51.630;7.484;2023-11-21T09:05:19;-17388.34;;;9.38;100.00
15193;BME280;7697;51.630;7.484;2023-11-21T09:10:21;-17388.81;;;9.40;100.00
15193;BME280;7697;51.630;7.484;2023-11-21T09:15:25;-17390.84;;;9.46;100.00
15193;BME280;7697;51.630;7.484;2023-11-21T09:20:27;-17391.00;;;9.47;100.00
15193;BME280;7697;51.630;7.484;2023-11-21T09:25:29;-17393.19;;;9.53;100.00
15193;BME280;7697;51.630;7.484;2023-11-21T09:30:32;-17395.19;;;9.59;100.00
15193;BME280;7697;51.630;7.484;2023-11-21T09:35:34;-17395.53;;;9.60;100.00
15193;BME280;7697;51.630;7.484;2023-11-21T09:40:35;-17394.03;;;9.56;100.00
15193;BME280;7697;51.630;7.484;2023-11-21T09:45:39;-17394.53;;;9.57;100.00
15193;BME280;7697;51.630;7.484;2023-11-21T09:50:42;-17396.53;;;9.63;100.00
15193;BME280;7697;51.630;7.484;2023-11-21T09:55:46;-17398.06;;;9.68;100.00
15193;BME280;7697;51.630;7.484;2023-11-21T10:00:53;-17400.06;;;9.74;100.00
15193;BME280;7697;51.630;7.484;2023-11-21T10:05:56;-17401.56;;;9.78;100.00
15193;BME280;7697;51.630;7.484;2023-11-21T10:10:59;-17402.09;;;9.80;100.00
15193;BME280;7697;51.630;7.484;2023-11-21T10:16:07;-17401.91;;;9.79;100.00
15193;BME280;7697;51.630;7.484;2023-11-21T10:21:12;-17403.94;;;9.86;100.00
15193;BME280;7697;51.630;7.484;2023-11-21T10:26:14;-17406.28;;;9.93;100.00
15193;BME280;7697;51.630;7.484;2023-11-21T10:31:18;-17405.94;;;9.92;100.00
15193;BME280;7697;51.630;7.484;2023-11-21T10:36:26;-17409.97;;;10.04;100.00
15193;BME280;7697;51.630;7.484;2023-11-21T10:41:28;-17410.13;;;10.04;100.00
15193;BME280;7697;51.630;7.484;2023-11-21T10:46:31;-17410.31;;;10.05;100.00
15193;BME280;7697;51.630;7.484;2023-11-21T10:51:32;-17410.13;;;10.04;100.00
15193;BME280;7697;51.630;7.484;2023-11-21T10:56:35;-17410.31;;;10.05;100.00
15193;BME280;7697;51.630;7.484;2023-11-21T11:01:44;-17410.97;;;10.07;100.00
15193;BME280;7697;51.630;7.484;2023-11-21T11:06:51;-17409.97;;;10.04;100.00
15193;BME280;7697;51.630;7.484;2023-11-21T11:11:56;-17408.97;;;10.01;100.00
15193;BME280;7697;51.630;7.484;2023-11-21T11:17:00;-17410.97;;;10.07;100.00
15193;BME280;7697;51.630;7.484;2023-11-21T11:22:14;-17409.97;;;10.04;100.00
15193;BME280;7697;51.630;7.484;2023-11-21T11:27:25;-17410.31;;;10.05;100.00
15193;BME280;7697;51.630;7.484;2023-11-21T11:32:40;-17410.97;;;10.07;100.00
15193;BME280;7697;51.630;7.484;2023-11-21T11:37:44;-17414.31;;;10.17;100.00
15193;BME280;7697;51.630;7.484;2023-11-21T11:42:56;-17418.34;;;10.29;100.00
15193;BME280;7697;51.630;7.484;2023-11-21T11:48:01;-17418.19;;;10.29;100.00
15193;BME280;7697;51.630;7.484;2023-11-21T11:53:14;-17420.88;;;10.37;100.00
15193;BME280;7697;51.630;7.484;2023-11-21T11:58:16;-17421.38;;;10.38;100.00
15193;BME280;7697;51.630;7.484;2023-11-21T12:03:20;-17421.22;;;10.38;100.00
15193;BME280;7697;51.630;7.484;2023-11-21T12:08:22;-17421.22;;;10.38;100.00
15193;BME280;7697;51.630;7.484;2023-11-21T12:13:31;-17422.38;;;10.41;100.00
15193;BME280;7697;51.630;7.484;2023-11-21T12:18:34;-17423.72;;;10.45;100.00
15193;BME280;7697;51.630;7.484;2023-11-21T12:23:36;-17422.56;;;10.42;100.00
15193;BME280;7697;51.630;7.484;2023-11-21T12:28:38;-17423.91;;;10.46;100.00
15193;BME280;7697;51.630;7.484;2023-11-21T12:33:41;-17423.41;;;10.44;100.00
15193;BME280;7697;51.630;7.484;2023-11-21T12:38:43;-17423.06;;;10.43;100.00
15193;BME280;7697;51.630;7.484;2023-11-21T12:43:46;-17425.56;;;10.51;100.00
15193;BME280;7697;51.630;7.484;2023-11-21T12:48:49;-17425.75;;;10.51;100.00
15193;BME280;7697;51.630;7.484;2023-11-21T12:53:51;-17426.91;;;10.55;100.00
15193;BME280;7697;51.630;7.484;2023-11-21T12:58:54;-17425.75;;;10.51;100.00
15193;BME280;7697;51.630;7.484;2023-11-21T13:03:58;-17425.06;;;10.49;100.00
15193;BME280;7697;51.630;7.484;2023-11-21T13:09:02;-17425.06;;;10.49;100.00
15193;BME280;7697;51.630;7.484;2023-11-21T13:14:05;-17423.41;;;10.44;100.00
15193;BME280;7697;51.630;7.484;2023-11-21T13:19:08;-17422.88;;;10.43;100.00
15193;BME280;7697;51.630;7.484;2023-11-21T13:24:11;-17422.88;;;10.43;100.00
15193;BME280;7697;51.630;7.484;2023-11-21T13:29:19;-17421.88;;;10.40;100.00
15193;BME280;7697;51.630;7.484;2023-11-21T13:34:24;-17420.38;;;10.35;100.00
15193;BME280;7697;51.630;7.484;2023-11-21T13:39:28;-17420.38;;;10.35;100.00
15193;BME280;7697;51.630;7.484;2023-11-21T13:44:33;-17419.19;;;10.32;100.00
15193;BME280;7697;51.630;7.484;2023-11-21T13:49:41;-17419.19;;;10.32;100.00
15193;BME280;7697;51.630;7.484;2023-11-21T13:54:44;-17418.03;;;10.28;100.00
15193;BME280;7697;51.630;7.484;2023-11-21T13:59:50;-17418.69;;;10.30;100.00
15193;BME280;7697;51.630;7.484;2023-11-21T14:05:00;-17418.03;;;10.28;100.00
15193;BME280;7697;51.630;7.484;2023-11-21T14:10:11;-17419.69;;;10.33;100.00
15193;BME280;7697;51.630;7.484;2023-11-21T14:15:15;-17419.53;;;10.33;100.00
15193;BME280;7697;51.630;7.484;2023-11-21T14:20:27;-17417.34;;;10.26;100.00
15193;BME280;7697;51.630;7.484;2023-11-21T14:25:34;-17415.50;;;10.21;100.00
15193;BME280;7697;51.630;7.484;2023-11-21T14:30:39;-17413.31;;;10.14;100.00
15193;BME280;7697;51.630;7.484;2023-11-21T14:35:45;-17413.31;;;10.14;100.00
15193;BME280;7697;51.630;7.484;2023-11-21T14:40:47;-17412.97;;;10.13;100.00
15193;BME280;7697;51.630;7.484;2023-11-21T14:45:51;-17412.31;;;10.11;100.00
15193;BME280;7697;51.630;7.484;2023-11-21T14:50:59;-17409.97;;;10.04;100.00
15193;BME280;7697;51.630;7.484;2023-11-21T14:56:23;-17407.44;;;9.96;100.00
15193;BME280;7697;51.630;7.484;2023-11-21T15:01:45;-17402.59;;;9.82;100.00
15193;BME280;7697;51.630;7.484;2023-11-21T15:07:00;-17400.41;;;9.75;100.00
15193;BME280;7697;51.630;7.484;2023-11-21T15:12:05;-17397.06;;;9.65;100.00
15193;BME280;7697;51.630;7.484;2023-11-21T15:17:15;-17392.69;;;9.52;100.00
15193;BME280;7697;51.630;7.484;2023-11-21T15:22:24;-17391.69;;;9.49;100.00
15193;BME280;7697;51.630;7.484;2023-11-21T15:27:27;-17390.16;;;9.44;100.00
15193;BME280;7697;51.630;7.484;2023-11-21T15:32:29;-17390.00;;;9.44;100.00
15193;BME280;7697;51.630;7.484;2023-11-21T15:37:32;-17388.00;;;9.37;100.00
15193;BME280;7697;51.630;7.484;2023-11-21T15:42:37;-17388.16;;;9.38;100.00
15193;BME280;7697;51.630;7.484;2023-11-21T15:47:40;-17385.47;;;9.30;100.00
15193;BME280;7697;51.630;7.484;2023-11-21T15:52:45;-17384.63;;;9.27;100.00
15193;BME280;7697;51.630;7.484;2023-11-21T15:57:48;-17383.13;;;9.23;100.00
15193;BME280;7697;51.630;7.484;2023-11-21T16:02:51;-17379.44;;;9.12;100.00
15193;BME280;7697;51.630;7.484;2023-11-21T16:08:14;-17378.09;;;9.08;100.00
15193;BME280;7697;51.630;7.484;2023-11-21T16:13:18;-17377.44;;;9.06;100.00
15193;BME280;7697;51.630;7.484;2023-11-21T16:18:21;-17374.06;;;8.95;100.00
15193;BME280;7697;51.630;7.484;2023-11-21T16:23:25;-17374.41;;;8.96;100.00
15193;BME280;7697;51.630;7.484;2023-11-21T16:28:28;-17373.06;;;8.92;100.00
15193;BME280;7697;51.630;7.484;2023-11-21T16:33:31;-17371.72;;;8.88;100.00
15193;BME280;7697;51.630;7.484;2023-11-21T16:38:36;-17370.88;;;8.86;100.00
15193;BME280;7697;51.630;7.484;2023-11-21T16:43:39;-17368.03;;;8.77;100.00
15193;BME280;7697;51.630;7.484;2023-11-21T16:48:45;-17369.38;;;8.81;100.00
15193;BME280;7697;51.630;7.484;2023-11-21T16:53:49;-17369.03;;;8.80;100.00
15193;BME280;7697;51.630;7.484;2023-11-21T16:58:50;-17368.69;;;8.79;100.00
15193;BME280;7697;51.630;7.484;2023-11-21T17:03:52;-17366.84;;;8.74;100.00
15193;BME280;7697;51.630;7.484;2023-11-21T17:08:55;-17364.84;;;8.68;100.00
15193;BME280;7697;51.630;7.484;2023-11-21T17:13:58;-17365.69;;;8.70;100.00
15193;BME280;7697;51.630;7.484;2023-11-21T17:19:06;-17363.66;;;8.64;100.00
15193;BME280;7697;51.630;7.484;2023-11-21T17:24:36;-17362.66;;;8.61;100.00
15193;BME280;7697;51.630;7.484;2023-11-21T17:29:46;-17361.66;;;8.58;100.00
15193;BME280;7697;51.630;7.484;2023-11-21T17:34:50;-17361.31;;;8.57;100.00
15193;BME280;7697;51.630;7.484;2023-11-21T17:39:55;-17360.31;;;8.54;100.00
15193;BME280;7697;51.630;7.484;2023-11-21T17:44:58;-17359.81;;;8.52;100.00
15193;BME280;7697;51.630;7.484;2023-11-21T17:49:59;-17359.13;;;8.50;100.00
15193;BME280;7697;51.630;7.484;2023-11-21T17:55:04;-17359.66;;;8.52;100.00
15193;BME280;7697;51.630;7.484;2023-11-21T18:00:07;-17360.31;;;8.54;100.00
15193;BME280;7697;51.630;7.484;2023-11-21T18:05:12;-17360.31;;;8.54;100.00
15193;BME280;7697;51.630;7.484;2023-11-21T18:10:16;-17357.47;;;8.45;100.00
15193;BME280;7697;51.630;7.484;2023-11-21T18:15:17;-17357.81;;;8.46;100.00
15193;BME280;7697;51.630;7.484;2023-11-21T18:20:20;-17357.63;;;8.46;100.00
15193;BME280;7697;51.630;7.484;2023-11-21T18:25:23;-17355.28;;;8.39;100.00
15193;BME280;7697;51.630;7.484;2023-11-21T18:30:26;-17354.78;;;8.37;100.00
15193;BME280;7697;51.630;7.484;2023-11-21T18:35:28;-17353.28;;;8.33;100.00
15193;BME280;7697;51.630;7.484;2023-11-21T18:40:31;-17355.47;;;8.39;100.00
15193;BME280;7697;51.630;7.484;2023-11-21T18:45:33;-17354.63;;;8.37;100.00
15193;BME280;7697;51.630;7.484;2023-11-21T18:50:35;-17354.13;;;8.35;100.00
15193;BME280;7697;51.630;7.484;2023-11-21T18:55:38;-17354.63;;;8.37;100.00
15193;BME280;7697;51.630;7.484;2023-11-21T19:00:42;-17352.09;;;8.29;100.00
15193;BME280;7697;51.630;7.484;2023-11-21T19:05:44;-17354.28;;;8.36;100.00
15193;BME280;7697;51.630;7.484;2023-11-21T19:10:47;-17351.94;;;8.28;100.00
15193;BME280;7697;51.630;7.484;2023-11-21T19:15:49;-17351.09;;;8.26;100.00
15193;BME280;7697;51.630;7.484;2023-11-21T19:20:50;-17349.91;;;8.22;100.00
15193;BME280;7697;51.630;7.484;2023-11-21T19:25:54;-17349.91;;;8.22;100.00
15193;BME280;7697;51.630;7.484;2023-11-21T19:30:55;-17350.59;;;8.24;100.00
15193;BME280;7697;51.630;7.484;2023-11-21T19:36:05;-17351.09;;;8.26;100.00
15193;BME280;7697;51.630;7.484;2023-11-21T19:41:19;-17349.91;;;8.22;100.00
15193;BME280;7697;51.630;7.484;2023-11-21T19:46:23;-17349.91;;;8.22;100.00
15193;BME280;7697;51.630;7.484;2023-11-21T19:51:28;-17348.91;;;8.19;100.00
15193;BME280;7697;51.630;7.484;2023-11-21T19:56:37;-17346.91;;;8.13;100.00
15193;BME280;7697;51.630;7.484;2023-11-21T20:01:45;-17346.72;;;8.13;100.00
15193;BME280;7697;51.630;7.484;2023-11-21T20:06:47;-17346.22;;;8.11;100.00
15193;BME280;7697;51.630;7.484;2023-11-21T20:11:54;-17346.22;;;8.11;100.00
15193;BME280;7697;51.630;7.484;2023-11-21T20:16:59;-17344.53;;;8.06;100.00
15193;BME280;7697;51.630;7.484;2023-11-21T20:22:03;-17344.88;;;8.07;100.00
15193;BME280;7697;51.630;7.484;2023-11-21T20:27:13;-17344.88;;;8.07;100.00
15193;BME280;7697;51.630;7.484;2023-11-21T20:32:20;-17344.53;;;8.06;100.00
15193;BME280;7697;51.630;7.484;2023-11-21T20:37:28;-17341.88;;;7.98;100.00
15193;BME280;7697;51.630;7.484;2023-11-21T20:42:40;-17344.53;;;8.06;100.00
15193;BME280;7697;51.630;7.484;2023-11-21T20:47:47;-17344.03;;;8.05;100.00
15193;BME280;7697;51.630;7.484;2023-11-21T20:52:52;-17342.19;;;7.99;100.00
15193;BME280;7697;51.630;7.484;2023-11-21T20:57:58;-17343.38;;;8.03;100.00
15193;BME280;7697;51.630;7.484;2023-11-21T21:03:04;-17344.53;;;8.06;100.00
15193;BME280;7697;51.630;7.484;2023-11-21T21:08:09;-17343.72;;;8.04;100.00
15193;BME280;7697;51.630;7.484;2023-11-21T21:13:17;-17342.53;;;8.00;100.00
15193;BME280;7697;51.630;7.484;2023-11-21T21:18:22;-17342.19;;;7.99;100.00
15193;BME280;7697;51.630;7.484;2023-11-21T21:23:31;-17340.53;;;7.94;100.00
15193;BME280;7697;51.630;7.484;2023-11-21T21:28:37;-17338.19;;;7.87;100.00
15193;BME280;7697;51.630;7.484;2023-11-21T21:38:47;-17333.81;;;7.74;100.00
15193;BME280;7697;51.630;7.484;2023-11-21T21:43:53;-17334.81;;;7.77;100.00
15193;BME280;7697;51.630;7.484;2023-11-21T21:48:56;-17334.31;;;7.75;100.00
15193;BME280;7697;51.630;7.484;2023-11-21T21:54:01;-17331.81;;;7.68;100.00
15193;BME280;7697;51.630;7.484;2023-11-21T21:59:08;-17332.81;;;7.71;100.00
15193;BME280;7697;51.630;7.484;2023-11-21T22:04:15;-17330.47;;;7.64;100.00
15193;BME280;7697;51.630;7.484;2023-11-21T22:09:24;-17329.78;;;7.62;100.00
15193;BME280;7697;51.630;7.484;2023-11-21T22:14:35;-17331.31;;;7.66;100.00
15193;BME280;7697;51.630;7.484;2023-11-21T22:19:38;-17329.13;;;7.60;100.00
15193;BME280;7697;51.630;7.484;2023-11-21T22:24:43;-17327.09;;;7.53;100.00
15193;BME280;7697;51.630;7.484;2023-11-21T22:29:48;-17327.94;;;7.56;100.00
15193;BME280;7697;51.630;7.484;2023-11-21T22:34:51;-17325.94;;;7.50;100.00
15193;BME280;7697;51.630;7.484;2023-11-21T22:39:55;-17322.06;;;7.38;100.00
15193;BME280;7697;51.630;7.484;2023-11-21T22:45:00;-17323.41;;;7.42;100.00
15193;BME280;7697;51.630;7.484;2023-11-21T22:50:03;-17323.41;;;7.42;100.00
15193;BME280;7697;51.630;7.484;2023-11-21T22:55:08;-17323.59;;;7.43;100.00
15193;BME280;7697;51.630;7.484;2023-11-21T23:00:13;-17321.06;;;7.35;100.00
15193;BME280;7697;51.630;7.484;2023-11-21T23:05:18;-17319.72;;;7.31;100.00
15193;BME280;7697;51.630;7.484;2023-11-21T23:10:22;-17319.41;;;7.30;100.00
15193;BME280;7697;51.630;7.484;2023-11-21T23:15:29;-17318.06;;;7.26;100.00
15193;BME280;7697;51.630;7.484;2023-11-21T23:20:33;-17318.38;;;7.27;100.00
15193;BME280;7697;51.630;7.484;2023-11-21T23:25:36;-17317.56;;;7.25;100.00
15193;BME280;7697;51.630;7.484;2023-11-21T23:30:41;-17318.72;;;7.28;100.00
15193;BME280;7697;51.630;7.484;2023-11-21T23:35:46;-17316.53;;;7.22;100.00
15193;BME280;7697;51.630;7.484;2023-11-21T23:40:49;-17316.53;;;7.22;100.00
15193;BME280;7697;51.630;7.484;2023-11-21T23:45:53;-17315.19;;;7.18;100.00
15193;BME280;7697;51.630;7.484;2023-11-21T23:50:58;-17314.03;;;7.14;100.00
15193;BME280;7697;51.630;7.484;2023-11-21T23:56:08;-17315.53;;;7.19;100.00
